createdAt,value
2023-04-30T00:00:53.123Z,8.33
2023-04-30T00:01:55.226Z,8.36
2023-04-30T00:03:00.056Z,8.39
2023-04-30T00:04:02.262Z,8.39
2023-04-30T00:05:07.498Z,8.33
2023-04-30T00:06:09.714Z,8.37
2023-04-30T00:07:14.644Z,8.37
2023-04-30T00:08:16.801Z,8.35
2023-04-30T00:09:22.110Z,8.39
2023-04-30T00:10:24.705Z,8.39
2023-04-30T00:11:31.968Z,8.36
2023-04-30T00:12:34.106Z,8.32
2023-04-30T00:13:38.860Z,8.29
2023-04-30T00:14:40.959Z,8.32
2023-04-30T00:15:45.623Z,8.30
2023-04-30T00:16:47.698Z,8.33
2023-04-30T00:17:53.610Z,8.30
2023-04-30T00:18:55.672Z,8.30
2023-04-30T00:20:00.376Z,8.32
2023-04-30T00:21:02.495Z,8.35
2023-04-30T00:22:07.266Z,8.40
2023-04-30T00:23:09.314Z,8.33
2023-04-30T00:24:14.144Z,8.32
2023-04-30T00:25:17.136Z,8.33
2023-04-30T00:26:21.860Z,8.33
2023-04-30T00:27:26.827Z,8.32
2023-04-30T00:28:31.533Z,8.31
2023-04-30T00:29:33.602Z,8.34
2023-04-30T00:30:38.309Z,8.30
2023-04-30T00:31:40.716Z,8.25
2023-04-30T00:32:46.113Z,8.23
2023-04-30T00:33:48.216Z,8.24
2023-04-30T00:34:53.044Z,8.27
2023-04-30T00:35:55.272Z,8.25
2023-04-30T00:36:59.883Z,8.27
2023-04-30T00:38:01.991Z,8.24
2023-04-30T00:39:06.843Z,8.28
2023-04-30T00:40:10.266Z,8.29
2023-04-30T00:41:15.136Z,8.24
2023-04-30T00:42:17.189Z,8.22
2023-04-30T00:43:24.503Z,8.23
2023-04-30T00:44:26.734Z,8.23
2023-04-30T00:45:31.460Z,8.21
2023-04-30T00:46:33.554Z,8.27
2023-04-30T00:47:38.604Z,8.27
2023-04-30T00:48:40.731Z,8.24
2023-04-30T00:49:45.513Z,8.24
2023-04-30T00:50:47.638Z,8.24
2023-04-30T00:51:52.952Z,8.27
2023-04-30T00:52:55.807Z,8.27
2023-04-30T00:54:03.499Z,8.24
2023-04-30T00:55:06.966Z,8.23
2023-04-30T00:56:12.798Z,8.22
2023-04-30T00:57:15.937Z,8.16
2023-04-30T00:58:20.572Z,8.19
2023-04-30T00:59:25.423Z,8.20
2023-04-30T01:00:30.445Z,8.18
2023-04-30T01:01:32.738Z,8.18
2023-04-30T01:02:37.556Z,8.17
2023-04-30T01:03:40.022Z,8.18
2023-04-30T01:04:44.727Z,8.15
2023-04-30T01:05:46.762Z,8.15
2023-04-30T01:06:52.237Z,8.16
2023-04-30T01:07:55.616Z,8.16
2023-04-30T01:09:01.408Z,8.14
2023-04-30T01:10:03.954Z,8.14
2023-04-30T01:11:20.148Z,8.13
2023-04-30T01:12:29.887Z,8.12
2023-04-30T01:13:42.319Z,8.12
2023-04-30T01:14:57.235Z,8.09
2023-04-30T01:16:08.473Z,8.07
2023-04-30T01:17:28.676Z,8.08
2023-04-30T01:18:42.041Z,8.08
2023-04-30T01:19:46.274Z,8.04
2023-04-30T01:20:53.262Z,8.08
2023-04-30T01:21:58.476Z,8.11
2023-04-30T01:23:12.258Z,8.09
2023-04-30T01:24:32.757Z,8.10
2023-04-30T01:25:47.214Z,8.10
2023-04-30T01:26:59.779Z,8.08
2023-04-30T01:28:19.463Z,8.12
2023-04-30T01:29:22.442Z,8.15
2023-04-30T01:30:28.218Z,8.19
2023-04-30T01:31:30.340Z,8.18
2023-04-30T01:32:35.217Z,8.22
2023-04-30T01:33:37.318Z,8.17
2023-04-30T01:34:42.065Z,8.15
2023-04-30T01:36:04.917Z,8.11
2023-04-30T01:37:19.157Z,8.11
2023-04-30T01:38:34.106Z,8.11
2023-04-30T01:40:05.245Z,8.14
2023-04-30T01:41:14.651Z,8.11
2023-04-30T01:42:24.051Z,8.15
2023-04-30T01:43:37.404Z,8.11
2023-04-30T01:44:50.270Z,8.13
2023-04-30T01:46:03.369Z,8.09
2023-04-30T01:47:21.902Z,8.09
2023-04-30T01:48:33.354Z,8.10
2023-04-30T01:49:53.636Z,8.09
2023-04-30T01:51:06.146Z,8.01
2023-04-30T01:52:18.073Z,8.00
2023-04-30T01:53:32.659Z,8.05
2023-04-30T01:54:44.051Z,8.03
2023-04-30T01:55:53.962Z,8.04
2023-04-30T01:57:04.454Z,8.01
2023-04-30T01:58:12.348Z,8.00
2023-04-30T01:59:18.044Z,8.03
2023-04-30T02:00:22.862Z,8.03
2023-04-30T02:01:29.371Z,8.02
2023-04-30T02:02:34.644Z,8.00
2023-04-30T02:03:36.883Z,8.01
2023-04-30T02:04:41.785Z,8.02
2023-04-30T02:05:43.889Z,8.03
2023-04-30T02:06:48.536Z,8.01
2023-04-30T02:07:52.055Z,8.00
2023-04-30T02:08:56.923Z,8.00
2023-04-30T02:09:59.167Z,8.00
2023-04-30T02:11:04.933Z,7.99
2023-04-30T02:12:07.793Z,7.99
2023-04-30T02:13:12.446Z,8.02
2023-04-30T02:14:17.225Z,7.98
2023-04-30T02:15:22.164Z,7.99
2023-04-30T02:16:24.528Z,8.00
2023-04-30T02:17:29.348Z,7.98
2023-04-30T02:18:31.520Z,8.01
2023-04-30T02:19:36.142Z,7.99
2023-04-30T02:20:38.212Z,7.94
2023-04-30T02:21:42.882Z,7.91
2023-04-30T02:22:44.991Z,7.92
2023-04-30T02:23:49.723Z,7.88
2023-04-30T02:24:53.881Z,7.88
2023-04-30T02:25:58.561Z,7.88
2023-04-30T02:27:01.438Z,7.89
2023-04-30T02:28:06.621Z,7.92
2023-04-30T02:29:08.815Z,7.90
2023-04-30T02:30:16.091Z,7.89
2023-04-30T02:31:18.228Z,7.89
2023-04-30T02:32:22.995Z,7.84
2023-04-30T02:33:25.220Z,7.87
2023-04-30T02:34:29.865Z,7.87
2023-04-30T02:35:32.020Z,7.89
2023-04-30T02:36:36.866Z,7.87
2023-04-30T02:37:39.022Z,7.91
2023-04-30T02:38:43.758Z,7.92
2023-04-30T02:39:46.056Z,7.88
2023-04-30T02:40:50.789Z,7.91
2023-04-30T02:41:52.850Z,7.91
2023-04-30T02:42:57.528Z,7.88
2023-04-30T02:43:59.725Z,7.85
2023-04-30T02:45:04.365Z,7.85
2023-04-30T02:46:09.172Z,7.85
2023-04-30T02:47:14.142Z,7.81
2023-04-30T02:48:16.378Z,7.83
2023-04-30T02:49:21.122Z,7.80
2023-04-30T02:50:25.840Z,7.78
2023-04-30T02:51:28.497Z,7.77
2023-04-30T02:52:33.192Z,7.76
2023-04-30T02:53:35.465Z,7.73
2023-04-30T02:54:40.294Z,7.71
2023-04-30T02:55:42.336Z,7.69
2023-04-30T02:56:47.116Z,7.70
2023-04-30T02:57:49.165Z,7.67
2023-04-30T02:58:54.153Z,7.64
2023-04-30T02:59:58.869Z,7.58
2023-04-30T03:01:01.024Z,7.61
2023-04-30T03:02:08.326Z,7.59
2023-04-30T03:03:10.621Z,7.56
2023-04-30T03:04:15.387Z,7.55
2023-04-30T03:05:17.666Z,7.52
2023-04-30T03:06:22.514Z,7.54
2023-04-30T03:07:24.631Z,7.47
2023-04-30T03:08:29.792Z,7.42
2023-04-30T03:09:32.395Z,7.41
2023-04-30T03:10:37.036Z,7.41
2023-04-30T03:11:39.127Z,7.38
2023-04-30T03:12:43.912Z,7.37
2023-04-30T03:13:46.511Z,7.30
2023-04-30T03:14:51.198Z,7.28
2023-04-30T03:15:58.440Z,7.25
2023-04-30T03:17:03.177Z,7.26
2023-04-30T03:18:07.890Z,7.31
2023-04-30T03:19:12.628Z,7.25
2023-04-30T03:20:14.989Z,7.20
2023-04-30T03:21:19.660Z,7.21
2023-04-30T03:22:23.992Z,7.18
2023-04-30T03:23:30.942Z,7.20
2023-04-30T03:24:33.241Z,7.24
2023-04-30T03:26:23.511Z,7.22
2023-04-30T03:27:25.592Z,7.16
2023-04-30T03:28:30.397Z,7.15
2023-04-30T03:29:32.515Z,7.17
2023-04-30T03:30:37.262Z,7.15
2023-04-30T03:31:39.404Z,7.13
2023-04-30T03:32:44.214Z,7.09
2023-04-30T03:33:48.957Z,7.06
2023-04-30T03:34:53.735Z,7.08
2023-04-30T03:35:55.928Z,7.06
2023-04-30T03:37:02.027Z,7.03
2023-04-30T03:38:04.351Z,7.03
2023-04-30T03:39:10.114Z,7.01
2023-04-30T03:40:13.324Z,6.93
2023-04-30T03:41:18.236Z,6.94
2023-04-30T03:42:20.470Z,6.93
2023-04-30T03:43:25.236Z,6.91
2023-04-30T03:44:27.348Z,6.88
2023-04-30T03:45:32.250Z,6.89
2023-04-30T03:46:34.385Z,6.91
2023-04-30T03:47:39.498Z,6.88
2023-04-30T03:48:41.561Z,6.89
2023-04-30T03:49:55.542Z,6.89
2023-04-30T03:50:58.077Z,6.90
2023-04-30T03:52:02.909Z,6.91
2023-04-30T03:53:04.958Z,6.91
2023-04-30T03:54:09.631Z,6.92
2023-04-30T03:55:12.107Z,6.98
2023-04-30T03:56:17.634Z,6.93
2023-04-30T03:57:20.152Z,6.99
2023-04-30T03:58:25.291Z,6.95
2023-04-30T03:59:27.431Z,6.95
2023-04-30T04:00:32.537Z,6.91
2023-04-30T04:01:34.683Z,6.89
2023-04-30T04:02:39.965Z,6.88
2023-04-30T04:03:42.142Z,6.86
2023-04-30T04:04:49.564Z,6.92
2023-04-30T04:05:51.710Z,6.90
2023-04-30T04:06:56.425Z,6.94
2023-04-30T04:07:58.500Z,6.89
2023-04-30T04:09:03.799Z,6.85
2023-04-30T04:10:07.292Z,6.85
2023-04-30T04:11:12.093Z,6.81
2023-04-30T04:12:14.143Z,6.80
2023-04-30T04:13:18.992Z,6.81
2023-04-30T04:14:21.111Z,6.83
2023-04-30T04:15:25.797Z,6.82
2023-04-30T04:16:27.942Z,6.80
2023-04-30T04:17:32.675Z,6.81
2023-04-30T04:18:34.866Z,6.82
2023-04-30T04:19:39.578Z,6.80
2023-04-30T04:20:44.227Z,6.80
2023-04-30T04:21:48.921Z,6.78
2023-04-30T04:22:51.218Z,6.78
2023-04-30T04:23:55.962Z,6.80
2023-04-30T04:24:58.631Z,6.84
2023-04-30T04:26:03.464Z,6.87
2023-04-30T04:27:05.880Z,6.86
2023-04-30T04:28:10.789Z,6.89
2023-04-30T04:29:12.898Z,6.89
2023-04-30T04:30:17.539Z,6.88
2023-04-30T04:31:20.597Z,6.89
2023-04-30T04:32:25.682Z,6.91
2023-04-30T04:33:28.074Z,6.98
2023-04-30T04:34:32.854Z,7.00
2023-04-30T04:35:34.952Z,7.02
2023-04-30T04:36:42.231Z,7.02
2023-04-30T04:38:23.089Z,7.02
2023-04-30T04:39:25.340Z,7.05
2023-04-30T04:40:31.716Z,7.07
2023-04-30T04:41:35.289Z,7.10
2023-04-30T04:42:40.311Z,7.11
2023-04-30T04:43:42.665Z,7.14
2023-04-30T04:44:47.371Z,7.15
2023-04-30T04:45:49.494Z,7.21
2023-04-30T04:46:54.932Z,7.22
2023-04-30T04:47:57.144Z,7.26
2023-04-30T04:49:02.224Z,7.28
2023-04-30T04:50:04.916Z,7.35
2023-04-30T04:51:09.556Z,7.38
2023-04-30T04:52:14.222Z,7.42
2023-04-30T04:53:18.905Z,7.42
2023-04-30T04:54:21.467Z,7.47
2023-04-30T04:55:26.239Z,7.51
2023-04-30T04:56:28.423Z,7.55
2023-04-30T04:57:33.250Z,7.60
2023-04-30T04:58:35.602Z,7.69
2023-04-30T04:59:40.502Z,7.73
2023-04-30T05:00:42.600Z,7.74
2023-04-30T05:01:47.670Z,7.80
2023-04-30T05:02:50.151Z,7.84
2023-04-30T05:03:55.112Z,7.85
2023-04-30T05:04:57.300Z,7.87
2023-04-30T05:06:02.054Z,7.93
2023-04-30T05:07:04.477Z,7.92
2023-04-30T05:08:11.732Z,7.99
2023-04-30T05:09:13.844Z,8.07
2023-04-30T05:10:18.810Z,8.10
2023-04-30T05:11:22.151Z,8.16
2023-04-30T05:12:26.899Z,8.17
2023-04-30T05:13:29.031Z,8.17
2023-04-30T05:16:23.820Z,8.33
2023-04-30T05:19:29.682Z,8.43
2023-04-30T05:20:31.813Z,8.43
2023-04-30T05:21:36.558Z,8.44
2023-04-30T05:22:39.162Z,8.40
2023-04-30T05:23:47.211Z,8.44
2023-04-30T05:24:49.584Z,8.45
2023-04-30T05:25:55.616Z,8.47
2023-04-30T05:26:57.665Z,8.47
2023-04-30T05:28:02.409Z,8.45
2023-04-30T05:29:04.532Z,8.45
2023-04-30T05:30:10.900Z,8.43
2023-04-30T05:31:13.140Z,8.45
2023-04-30T05:32:17.868Z,8.49
2023-04-30T05:33:19.921Z,8.55
2023-04-30T05:34:24.641Z,8.59
2023-04-30T05:35:26.790Z,8.55
2023-04-30T05:36:32.325Z,8.53
2023-04-30T05:37:36.966Z,8.59
2023-04-30T05:38:39.045Z,8.55
2023-04-30T05:39:46.329Z,8.56
2023-04-30T05:40:48.390Z,8.59
2023-04-30T05:41:53.550Z,8.54
2023-04-30T05:42:56.451Z,8.54
2023-04-30T05:44:03.056Z,8.49
2023-04-30T05:45:06.429Z,8.53
2023-04-30T05:46:11.138Z,8.57
2023-04-30T05:47:13.376Z,8.62
2023-04-30T05:50:40.218Z,8.72
2023-04-30T05:51:44.919Z,8.77
2023-04-30T05:52:46.970Z,8.80
2023-04-30T05:53:51.727Z,8.86
2023-04-30T05:54:56.372Z,8.90
2023-04-30T05:56:01.150Z,8.96
2023-04-30T05:57:03.248Z,9.00
2023-04-30T05:58:08.002Z,9.08
2023-04-30T05:59:10.129Z,9.10
2023-04-30T06:00:16.356Z,9.15
2023-04-30T06:01:19.522Z,9.25
2023-04-30T06:02:24.279Z,9.31
2023-04-30T06:03:26.485Z,9.35
2023-04-30T06:04:31.916Z,9.38
2023-04-30T06:05:34.074Z,9.47
2023-04-30T06:06:38.863Z,9.50
2023-04-30T06:07:41.006Z,9.58
2023-04-30T06:08:45.844Z,9.61
2023-04-30T06:10:37.137Z,9.59
2023-04-30T06:11:45.495Z,9.73
2023-04-30T06:12:47.572Z,9.71
2023-04-30T06:13:52.353Z,9.78
2023-04-30T06:14:54.533Z,9.82
2023-04-30T06:15:59.398Z,9.75
2023-04-30T06:17:01.535Z,9.72
2023-04-30T06:18:06.933Z,9.70
2023-04-30T06:19:09.098Z,9.71
2023-04-30T06:20:15.029Z,9.69
2023-04-30T06:21:17.087Z,9.69
2023-04-30T06:22:21.759Z,9.67
2023-04-30T06:23:23.783Z,9.71
2023-04-30T06:24:30.512Z,9.68
2023-04-30T06:25:32.670Z,9.75
2023-04-30T06:26:38.864Z,9.63
2023-04-30T06:27:46.408Z,9.71
2023-04-30T06:28:48.624Z,9.85
2023-04-30T06:29:53.473Z,9.98
2023-04-30T06:30:55.926Z,10.09
2023-04-30T06:32:00.820Z,10.09
2023-04-30T06:33:03.063Z,10.20
2023-04-30T06:34:07.848Z,10.22
2023-04-30T06:35:10.363Z,10.30
2023-04-30T06:36:15.066Z,10.38
2023-04-30T06:37:17.116Z,10.40
2023-04-30T06:38:21.913Z,10.29
2023-04-30T06:39:23.967Z,10.27
2023-04-30T06:40:28.687Z,10.30
2023-04-30T06:41:30.809Z,10.28
2023-04-30T06:42:36.129Z,10.33
2023-04-30T06:43:40.886Z,10.23
2023-04-30T06:44:45.904Z,10.25
2023-04-30T06:45:48.130Z,10.26
2023-04-30T06:46:52.861Z,10.27
2023-04-30T06:47:57.856Z,10.25
2023-04-30T06:48:59.959Z,10.26
2023-04-30T06:50:04.721Z,10.34
2023-04-30T06:51:10.569Z,10.37
2023-04-30T06:52:13.081Z,10.41
2023-04-30T06:53:18.112Z,10.39
2023-04-30T06:54:22.905Z,10.36
2023-04-30T06:55:28.322Z,10.42
2023-04-30T06:56:30.947Z,10.41
2023-04-30T06:57:37.461Z,10.48
2023-04-30T06:58:42.801Z,10.57
2023-04-30T06:59:48.058Z,10.51
2023-04-30T07:00:50.134Z,10.65
2023-04-30T07:01:54.970Z,10.67
2023-04-30T07:02:57.491Z,10.70
2023-04-30T07:04:02.320Z,10.78
2023-04-30T07:05:04.712Z,10.82
2023-04-30T07:06:09.555Z,10.80
2023-04-30T07:07:11.827Z,10.85
2023-04-30T07:08:16.474Z,10.93
2023-04-30T07:09:18.610Z,10.97
2023-04-30T07:10:35.749Z,10.98
2023-04-30T07:11:38.011Z,10.90
2023-04-30T07:12:42.702Z,10.95
2023-04-30T07:13:47.463Z,11.04
2023-04-30T07:14:52.199Z,11.03
2023-04-30T07:15:55.228Z,10.97
2023-04-30T07:17:00.016Z,11.01
2023-04-30T07:18:04.258Z,11.01
2023-04-30T07:19:09.106Z,11.09
2023-04-30T07:20:14.745Z,11.15
2023-04-30T07:21:19.533Z,11.25
2023-04-30T07:22:21.839Z,11.25
2023-04-30T07:23:27.850Z,11.09
2023-04-30T07:24:30.615Z,11.11
2023-04-30T07:25:35.365Z,11.07
2023-04-30T07:26:37.491Z,11.16
2023-04-30T07:28:18.099Z,11.26
2023-04-30T07:29:22.912Z,11.31
2023-04-30T07:30:27.686Z,11.39
2023-04-30T07:31:30.158Z,11.38
2023-04-30T07:32:35.167Z,11.43
2023-04-30T07:33:39.993Z,11.53
2023-04-30T07:34:42.254Z,11.54
2023-04-30T07:35:46.926Z,11.61
2023-04-30T07:36:49.076Z,11.59
2023-04-30T07:37:53.786Z,11.62
2023-04-30T07:38:55.943Z,11.73
2023-04-30T07:40:01.128Z,11.73
2023-04-30T07:41:03.263Z,11.73
2023-04-30T07:42:08.182Z,11.74
2023-04-30T07:43:10.289Z,11.73
2023-04-30T07:44:14.975Z,11.79
2023-04-30T07:45:19.702Z,11.88
2023-04-30T07:46:25.325Z,11.92
2023-04-30T07:47:27.436Z,11.95
2023-04-30T07:48:32.106Z,12.06
2023-04-30T07:49:34.276Z,12.13
2023-04-30T07:50:39.296Z,12.24
2023-04-30T07:51:42.628Z,12.34
2023-04-30T07:52:47.408Z,12.41
2023-04-30T07:53:49.544Z,12.53
2023-04-30T07:54:54.359Z,12.59
2023-04-30T07:55:56.596Z,12.71
2023-04-30T07:57:01.264Z,12.77
2023-04-30T07:58:04.213Z,12.74
2023-04-30T07:59:08.934Z,12.82
2023-04-30T08:00:12.456Z,12.89
2023-04-30T08:01:19.821Z,12.88
2023-04-30T08:02:22.345Z,12.90
2023-04-30T08:03:27.395Z,13.05
2023-04-30T08:04:29.607Z,13.05
2023-04-30T08:05:34.322Z,13.09
2023-04-30T08:06:36.479Z,13.10
2023-04-30T08:07:41.853Z,13.15
2023-04-30T08:08:47.753Z,12.98
2023-04-30T08:09:50.836Z,13.15
2023-04-30T08:10:55.557Z,13.17
2023-04-30T08:11:57.642Z,13.28
2023-04-30T08:13:02.326Z,13.39
2023-04-30T08:14:07.244Z,13.35
2023-04-30T08:15:53.858Z,13.35
2023-04-30T08:17:14.196Z,13.36
2023-04-30T08:18:16.523Z,13.40
2023-04-30T08:19:21.216Z,13.43
2023-04-30T08:20:23.875Z,13.47
2023-04-30T08:21:28.633Z,13.52
2023-04-30T08:22:31.002Z,13.71
2023-04-30T08:23:36.302Z,13.71
2023-04-30T08:24:41.172Z,13.71
2023-04-30T08:25:43.237Z,13.92
2023-04-30T08:26:47.893Z,14.25
2023-04-30T08:27:49.964Z,14.28
2023-04-30T08:28:54.650Z,14.51
2023-04-30T08:29:56.961Z,14.72
2023-04-30T08:31:01.812Z,14.94
2023-04-30T08:32:04.414Z,15.20
2023-04-30T08:33:12.056Z,15.31
2023-04-30T08:34:14.181Z,15.47
2023-04-30T08:35:19.790Z,15.64
2023-04-30T08:36:21.875Z,15.67
2023-04-30T08:37:26.578Z,15.83
2023-04-30T08:38:29.258Z,15.93
2023-04-30T08:39:34.068Z,16.03
2023-04-30T08:40:51.100Z,16.09
2023-04-30T08:41:59.677Z,16.07
2023-04-30T08:43:06.326Z,16.25
2023-04-30T08:44:14.163Z,16.22
2023-04-30T08:45:16.520Z,16.39
2023-04-30T08:46:24.534Z,16.60
2023-04-30T08:47:27.392Z,16.62
2023-04-30T08:48:35.113Z,16.92
2023-04-30T08:49:40.086Z,16.82
2023-04-30T08:50:42.792Z,16.80
2023-04-30T08:51:48.410Z,16.94
2023-04-30T08:52:50.504Z,16.96
2023-04-30T08:53:58.413Z,16.98
2023-04-30T08:55:02.131Z,17.18
2023-04-30T08:56:07.409Z,17.26
2023-04-30T08:57:09.801Z,17.34
2023-04-30T08:58:15.177Z,17.15
2023-04-30T08:59:19.812Z,16.96
2023-04-30T09:00:24.868Z,16.70
2023-04-30T09:01:31.128Z,16.56
2023-04-30T09:02:33.782Z,16.51
2023-04-30T09:03:41.301Z,16.41
2023-04-30T09:04:43.461Z,16.29
2023-04-30T09:05:48.304Z,16.47
2023-04-30T09:06:53.278Z,16.40
2023-04-30T09:08:03.549Z,16.56
2023-04-30T09:09:22.076Z,16.77
2023-04-30T09:10:24.535Z,16.88
2023-04-30T09:11:34.049Z,17.10
2023-04-30T09:12:37.356Z,16.92
2023-04-30T09:13:44.116Z,17.07
2023-04-30T09:15:02.419Z,17.47
2023-04-30T09:16:05.147Z,17.70
2023-04-30T09:17:11.561Z,18.06
2023-04-30T09:18:17.788Z,18.34
2023-04-30T09:19:32.429Z,18.85
2023-04-30T09:20:35.050Z,18.88
2023-04-30T09:21:47.276Z,18.83
2023-04-30T09:23:05.318Z,19.18
2023-04-30T09:24:10.508Z,18.88
2023-04-30T09:25:12.779Z,19.06
2023-04-30T09:26:24.147Z,19.00
2023-04-30T09:27:28.843Z,19.00
2023-04-30T09:28:31.977Z,18.92
2023-04-30T09:29:39.931Z,18.91
2023-04-30T09:30:45.213Z,18.85
2023-04-30T09:31:47.990Z,18.91
2023-04-30T09:32:58.214Z,19.01
2023-04-30T09:34:02.930Z,19.02
2023-04-30T09:35:31.276Z,18.74
2023-04-30T09:36:37.000Z,18.87
2023-04-30T09:37:39.507Z,18.95
2023-04-30T09:38:44.993Z,19.11
2023-04-30T09:39:48.891Z,19.26
2023-04-30T09:40:53.722Z,19.24
2023-04-30T09:42:07.710Z,18.96
2023-04-30T09:43:13.074Z,19.23
2023-04-30T09:44:30.854Z,19.60
2023-04-30T09:45:47.664Z,19.62
2023-04-30T09:46:51.130Z,19.45
2023-04-30T09:48:05.690Z,19.53
2023-04-30T09:49:22.600Z,18.87
2023-04-30T09:50:43.205Z,18.67
2023-04-30T09:51:56.887Z,18.82
2023-04-30T09:53:07.576Z,18.54
2023-04-30T09:54:14.641Z,18.70
2023-04-30T09:55:17.004Z,18.72
2023-04-30T09:56:26.310Z,18.89
2023-04-30T09:57:32.027Z,18.68
2023-04-30T09:58:40.097Z,18.92
2023-04-30T09:59:48.023Z,18.94
2023-04-30T10:00:53.216Z,18.84
2023-04-30T10:01:59.381Z,18.79
2023-04-30T10:03:06.290Z,18.85
2023-04-30T10:04:11.359Z,18.77
2023-04-30T10:05:16.491Z,18.69
2023-04-30T10:06:22.293Z,19.12
2023-04-30T10:07:32.397Z,19.23
2023-04-30T10:08:40.292Z,19.62
2023-04-30T10:09:51.130Z,19.85
2023-04-30T10:10:59.927Z,20.06
2023-04-30T10:12:07.970Z,19.80
2023-04-30T10:13:40.631Z,20.06
2023-04-30T10:14:51.021Z,19.93
2023-04-30T10:16:00.527Z,19.82
2023-04-30T10:17:11.588Z,19.31
2023-04-30T10:18:18.435Z,19.27
2023-04-30T10:19:26.175Z,19.22
2023-04-30T10:20:38.738Z,19.14
2023-04-30T10:21:48.424Z,19.07
2023-04-30T10:22:50.734Z,18.64
2023-04-30T10:23:57.408Z,18.97
2023-04-30T10:25:04.304Z,19.00
2023-04-30T10:26:42.778Z,18.47
2023-04-30T10:27:45.792Z,18.42
2023-04-30T10:28:53.795Z,17.94
2023-04-30T10:29:56.582Z,18.23
2023-04-30T10:31:02.042Z,18.28
2023-04-30T10:32:05.485Z,18.26
2023-04-30T10:33:20.105Z,18.47
2023-04-30T10:34:34.921Z,18.62
2023-04-30T10:35:45.692Z,18.62
2023-04-30T10:36:59.366Z,18.89
2023-04-30T10:39:48.035Z,19.28
2023-04-30T10:40:50.193Z,19.23
2023-04-30T10:41:55.012Z,19.23
2023-04-30T10:42:57.086Z,19.27
2023-04-30T10:44:05.573Z,19.51
2023-04-30T10:45:11.234Z,19.52
2023-04-30T10:46:25.186Z,19.63
2023-04-30T10:47:32.494Z,19.85
2023-04-30T10:48:36.142Z,19.84
2023-04-30T10:49:43.375Z,19.69
2023-04-30T10:50:46.787Z,19.81
2023-04-30T10:51:55.267Z,19.86
2023-04-30T10:53:03.465Z,19.89
2023-04-30T10:54:08.139Z,19.80
2023-04-30T10:55:10.812Z,19.39
2023-04-30T10:56:15.492Z,19.48
2023-04-30T10:57:20.280Z,19.64
2023-04-30T10:58:34.654Z,19.44
2023-04-30T10:59:39.842Z,19.12
2023-04-30T11:00:51.934Z,19.25
2023-04-30T11:02:01.724Z,18.97
2023-04-30T11:03:04.709Z,18.84
2023-04-30T11:04:11.262Z,18.86
2023-04-30T11:05:15.042Z,18.89
2023-04-30T11:06:21.934Z,18.83
2023-04-30T11:07:29.174Z,18.61
2023-04-30T11:08:38.013Z,18.45
2023-04-30T11:09:45.653Z,18.53
2023-04-30T11:10:58.946Z,18.53
2023-04-30T11:12:05.974Z,18.65
2023-04-30T11:13:11.350Z,18.52
2023-04-30T11:14:20.249Z,18.77
2023-04-30T11:15:29.055Z,18.67
2023-04-30T11:16:31.838Z,18.87
2023-04-30T11:17:37.484Z,18.91
2023-04-30T11:18:47.679Z,18.85
2023-04-30T11:19:51.584Z,18.48
2023-04-30T11:20:56.498Z,18.45
2023-04-30T11:22:17.082Z,18.45
2023-04-30T11:23:38.371Z,18.45
2023-04-30T11:24:57.126Z,18.81
2023-04-30T11:26:01.700Z,18.79
2023-04-30T11:27:06.693Z,18.89
2023-04-30T11:28:16.785Z,18.82
2023-04-30T11:29:19.574Z,18.81
2023-04-30T11:30:25.271Z,18.98
2023-04-30T11:31:34.053Z,18.94
2023-04-30T11:32:40.481Z,18.71
2023-04-30T11:33:45.160Z,18.96
2023-04-30T11:34:48.139Z,19.04
2023-04-30T11:35:54.545Z,18.99
2023-04-30T11:36:59.664Z,19.14
2023-04-30T11:38:05.223Z,18.66
2023-04-30T11:39:12.193Z,18.74
2023-04-30T11:40:17.960Z,18.41
2023-04-30T11:41:27.664Z,18.66
2023-04-30T11:42:30.900Z,18.67
2023-04-30T11:43:37.323Z,18.48
2023-04-30T11:44:39.477Z,18.58
2023-04-30T11:45:44.587Z,18.53
2023-04-30T11:46:47.050Z,18.27
2023-04-30T11:47:53.194Z,18.10
2023-04-30T11:49:00.126Z,18.15
2023-04-30T11:50:02.251Z,18.13
2023-04-30T11:51:10.852Z,18.23
2023-04-30T11:52:13.819Z,17.87
2023-04-30T11:53:18.811Z,17.87
2023-04-30T11:54:24.282Z,17.97
2023-04-30T11:55:30.821Z,18.06
2023-04-30T11:56:33.412Z,18.18
2023-04-30T11:57:42.692Z,18.32
2023-04-30T11:58:50.687Z,18.22
2023-04-30T11:59:52.931Z,18.30
2023-04-30T12:01:03.110Z,18.44
2023-04-30T12:02:08.091Z,18.62
2023-04-30T12:03:12.939Z,18.88
2023-04-30T12:04:15.487Z,19.17
2023-04-30T12:05:21.779Z,19.44
2023-04-30T12:07:39.102Z,19.72
2023-04-30T12:08:44.903Z,19.88
2023-04-30T12:09:56.877Z,19.52
2023-04-30T12:11:01.948Z,19.62
2023-04-30T12:12:04.804Z,19.96
2023-04-30T12:13:09.513Z,19.98
2023-04-30T12:14:15.457Z,20.11
2023-04-30T12:15:19.673Z,20.31
2023-04-30T12:16:24.551Z,20.20
2023-04-30T12:17:36.636Z,20.59
2023-04-30T12:18:41.466Z,20.41
2023-04-30T12:19:43.557Z,20.83
2023-04-30T12:20:48.611Z,21.02
2023-04-30T12:21:51.133Z,21.39
2023-04-30T12:22:56.091Z,21.58
2023-04-30T12:24:03.216Z,21.76
2023-04-30T12:25:14.300Z,21.27
2023-04-30T12:26:18.965Z,21.03
2023-04-30T12:27:22.446Z,21.36
2023-04-30T12:28:27.359Z,21.46
2023-04-30T12:29:29.665Z,21.43
2023-04-30T12:30:35.022Z,21.09
2023-04-30T12:31:38.170Z,21.00
2023-04-30T12:32:44.613Z,20.52
2023-04-30T12:33:55.038Z,20.69
2023-04-30T12:35:02.030Z,20.94
2023-04-30T12:38:11.144Z,20.72
2023-04-30T12:39:17.595Z,20.75
2023-04-30T12:40:27.569Z,20.67
2023-04-30T12:41:33.178Z,20.80
2023-04-30T12:42:38.661Z,20.41
2023-04-30T12:43:43.403Z,20.15
2023-04-30T12:44:45.693Z,20.05
2023-04-30T12:45:54.584Z,20.38
2023-04-30T12:47:00.781Z,20.43
2023-04-30T12:48:05.519Z,20.55
2023-04-30T12:49:07.593Z,21.20
2023-04-30T12:50:14.264Z,21.63
2023-04-30T12:51:20.368Z,22.26
2023-04-30T12:52:27.602Z,22.16
2023-04-30T12:54:39.228Z,22.43
2023-04-30T12:55:43.933Z,22.56
2023-04-30T12:57:01.461Z,22.47
2023-04-30T12:58:05.988Z,22.32
2023-04-30T12:59:19.493Z,22.22
2023-04-30T13:00:24.211Z,22.19
2023-04-30T13:01:29.086Z,22.46
2023-04-30T13:02:34.202Z,22.55
2023-04-30T13:03:36.573Z,21.61
2023-04-30T13:04:42.099Z,21.18
2023-04-30T13:05:48.900Z,20.90
2023-04-30T13:06:53.777Z,20.68
2023-04-30T13:08:02.335Z,20.48
2023-04-30T13:09:07.339Z,20.12
2023-04-30T13:10:10.594Z,19.82
2023-04-30T13:11:17.843Z,19.97
2023-04-30T13:12:23.144Z,19.86
2023-04-30T13:13:25.295Z,20.07
2023-04-30T13:14:30.123Z,20.12
2023-04-30T13:15:32.473Z,19.88
2023-04-30T13:16:39.402Z,20.04
2023-04-30T13:17:44.862Z,19.61
2023-04-30T13:18:47.292Z,19.77
2023-04-30T13:19:51.985Z,19.68
2023-04-30T13:20:54.286Z,19.72
2023-04-30T13:21:59.871Z,19.99
2023-04-30T13:23:02.002Z,20.09
2023-04-30T13:24:07.114Z,20.40
2023-04-30T13:25:12.312Z,20.71
2023-04-30T13:26:19.683Z,21.05
2023-04-30T13:27:24.796Z,21.11
2023-04-30T13:28:29.518Z,21.15
2023-04-30T13:29:34.072Z,21.04
2023-04-30T13:30:39.334Z,21.12
2023-04-30T13:31:42.581Z,21.87
2023-04-30T13:32:47.871Z,22.60
2023-04-30T13:33:50.409Z,23.04
2023-04-30T13:34:56.239Z,23.94
2023-04-30T13:35:58.352Z,24.55
2023-04-30T13:37:03.146Z,23.71
2023-04-30T13:38:06.597Z,24.04
2023-04-30T13:39:11.953Z,23.88
2023-04-30T13:40:16.936Z,24.09
2023-04-30T13:41:24.339Z,23.93
2023-04-30T13:42:27.268Z,23.52
2023-04-30T13:43:32.075Z,23.34
2023-04-30T13:44:36.888Z,23.25
2023-04-30T13:45:39.018Z,23.49
2023-04-30T13:46:44.019Z,23.49
2023-04-30T13:47:48.722Z,22.97
2023-04-30T13:48:56.445Z,23.09
2023-04-30T13:49:58.696Z,22.53
2023-04-30T13:51:03.450Z,22.48
2023-04-30T13:52:06.044Z,22.21
2023-04-30T13:53:10.780Z,22.53
2023-04-30T13:54:12.840Z,22.20
2023-04-30T13:55:17.728Z,22.14
2023-04-30T13:56:22.503Z,22.17
2023-04-30T13:57:30.289Z,22.28
2023-04-30T13:58:32.929Z,22.68
2023-04-30T13:59:38.747Z,22.49
2023-04-30T14:00:40.910Z,22.00
2023-04-30T14:01:45.568Z,21.54
2023-04-30T14:02:50.482Z,21.66
2023-04-30T14:03:52.749Z,21.73
2023-04-30T14:05:05.696Z,21.49
2023-04-30T14:06:08.782Z,21.97
2023-04-30T14:07:14.370Z,22.08
2023-04-30T14:08:16.567Z,22.18
2023-04-30T14:09:21.616Z,21.89
2023-04-30T14:10:26.320Z,21.95
2023-04-30T14:11:31.110Z,22.05
2023-04-30T14:12:35.909Z,22.34
2023-04-30T14:13:38.421Z,22.52
2023-04-30T14:14:43.115Z,22.82
2023-04-30T14:15:48.271Z,22.86
2023-04-30T14:16:50.733Z,22.38
2023-04-30T14:17:55.888Z,22.75
2023-04-30T14:18:57.996Z,23.27
2023-04-30T14:20:02.908Z,24.10
2023-04-30T14:21:07.872Z,24.31
2023-04-30T14:22:09.941Z,24.45
2023-04-30T14:23:14.692Z,24.07
2023-04-30T14:24:16.960Z,23.69
2023-04-30T14:25:21.831Z,23.78
2023-04-30T14:26:24.033Z,22.80
2023-04-30T14:27:31.363Z,22.49
2023-04-30T14:28:33.569Z,22.53
2023-04-30T14:29:38.384Z,22.38
2023-04-30T14:30:40.485Z,22.13
2023-04-30T14:31:45.260Z,21.68